createdAt,value
2023-02-17T00:00:34.138Z,377
2023-02-17T00:02:39.365Z,377
2023-02-17T00:04:44.708Z,376
2023-02-17T00:06:50.005Z,376
2023-02-17T00:08:55.165Z,377
2023-02-17T00:11:00.767Z,377
2023-02-17T00:13:05.810Z,378
2023-02-17T00:15:10.848Z,378
2023-02-17T00:17:16.022Z,378
2023-02-17T00:19:21.529Z,378
2023-02-17T00:21:29.404Z,378
2023-02-17T00:23:34.644Z,378
2023-02-17T00:25:42.516Z,379
2023-02-17T00:27:47.657Z,377
2023-02-17T00:29:52.593Z,378
2023-02-17T00:31:58.513Z,379
2023-02-17T00:34:03.900Z,382
2023-02-17T00:36:09.763Z,377
2023-02-17T00:38:14.820Z,378
2023-02-17T00:40:20.003Z,377
2023-02-17T00:42:24.981Z,378
2023-02-17T00:44:29.937Z,377
2023-02-17T00:46:35.173Z,379
2023-02-17T00:48:40.504Z,379
2023-02-17T00:50:45.743Z,378
2023-02-17T00:52:50.734Z,378
2023-02-17T00:54:56.158Z,378
2023-02-17T00:57:01.277Z,382
2023-02-17T00:59:06.555Z,378
2023-02-17T01:01:11.750Z,379
2023-02-17T01:03:17.109Z,379
2023-02-17T01:05:22.262Z,378
2023-02-17T01:07:27.387Z,379
2023-02-17T01:09:32.509Z,379
2023-02-17T01:11:37.631Z,380
2023-02-17T01:13:42.744Z,378
2023-02-17T01:15:48.027Z,377
2023-02-17T01:17:53.057Z,379
2023-02-17T01:19:58.048Z,379
2023-02-17T01:22:03.228Z,378
2023-02-17T01:24:08.390Z,378
2023-02-17T01:26:13.806Z,378
2023-02-17T01:28:19.094Z,379
2023-02-17T01:30:24.571Z,379
2023-02-17T01:32:29.828Z,379
2023-02-17T01:34:34.933Z,378
2023-02-17T01:36:40.140Z,378
2023-02-17T01:38:45.190Z,377
2023-02-17T01:40:50.296Z,378
2023-02-17T01:42:55.509Z,378
2023-02-17T01:45:00.833Z,377
2023-02-17T01:47:06.057Z,378
2023-02-17T01:49:10.971Z,378
2023-02-17T01:51:16.120Z,379
2023-02-17T01:53:21.523Z,378
2023-02-17T01:55:26.592Z,378
2023-02-17T01:57:31.535Z,382
2023-02-17T01:59:36.648Z,378
2023-02-17T02:01:42.277Z,378
2023-02-17T02:03:47.560Z,378
2023-02-17T02:05:52.674Z,378
2023-02-17T02:07:57.718Z,378
2023-02-17T02:10:02.788Z,378
2023-02-17T02:12:07.929Z,379
2023-02-17T02:14:12.936Z,378
2023-02-17T02:16:18.269Z,378
2023-02-17T02:18:23.535Z,378
2023-02-17T02:20:28.807Z,376
2023-02-17T02:22:34.101Z,378
2023-02-17T02:24:39.407Z,379
2023-02-17T02:26:44.466Z,378
2023-02-17T02:28:49.523Z,377
2023-02-17T02:30:54.892Z,376
2023-02-17T02:33:00.015Z,377
2023-02-17T02:35:05.106Z,377
2023-02-17T02:37:10.321Z,378
2023-02-17T02:39:15.968Z,376
2023-02-17T02:41:21.314Z,377
2023-02-17T02:43:26.352Z,376
2023-02-17T02:45:31.426Z,376
2023-02-17T02:47:36.538Z,378
2023-02-17T02:49:41.819Z,378
2023-02-17T02:51:46.964Z,378
2023-02-17T02:53:52.580Z,378
2023-02-17T02:55:57.686Z,378
2023-02-17T02:58:02.630Z,379
2023-02-17T03:00:07.679Z,379
2023-02-17T03:02:12.737Z,378
2023-02-17T03:04:18.027Z,379
2023-02-17T03:06:22.974Z,379
2023-02-17T03:08:27.946Z,377
2023-02-17T03:10:33.117Z,379
2023-02-17T03:12:38.248Z,378
2023-02-17T03:14:43.268Z,381
2023-02-17T03:16:48.625Z,379
2023-02-17T03:18:53.630Z,378
2023-02-17T03:20:58.682Z,379
2023-02-17T03:23:03.661Z,381
2023-02-17T03:25:08.791Z,379
2023-02-17T03:27:13.722Z,379
2023-02-17T03:29:18.879Z,382
2023-02-17T03:31:24.408Z,379
2023-02-17T03:33:29.715Z,381
2023-02-17T03:35:34.650Z,379
2023-02-17T03:37:39.647Z,382
2023-02-17T03:39:44.868Z,379
2023-02-17T03:41:49.845Z,377
2023-02-17T03:43:54.701Z,378
2023-02-17T03:45:59.656Z,378
2023-02-17T03:48:04.868Z,378
2023-02-17T03:50:09.820Z,378
2023-02-17T03:52:14.701Z,378
2023-02-17T03:54:19.726Z,377
2023-02-17T03:56:24.646Z,377
2023-02-17T03:58:29.837Z,378
2023-02-17T04:00:34.676Z,378
2023-02-17T04:02:41.114Z,379
2023-02-17T04:04:48.413Z,376
2023-02-17T04:06:53.345Z,379
2023-02-17T04:08:58.383Z,379
2023-02-17T04:11:03.504Z,379
2023-02-17T04:13:08.648Z,379
2023-02-17T04:15:13.792Z,379
2023-02-17T04:17:18.764Z,379
2023-02-17T04:19:23.822Z,378
2023-02-17T04:21:28.929Z,379
2023-02-17T04:23:34.131Z,378
2023-02-17T04:25:39.288Z,379
2023-02-17T04:27:44.346Z,379
2023-02-17T04:29:49.316Z,379
2023-02-17T04:31:54.859Z,378
2023-02-17T04:34:00.452Z,382
2023-02-17T04:36:06.811Z,379
2023-02-17T04:38:12.298Z,382
2023-02-17T04:40:17.371Z,379
2023-02-17T04:42:22.653Z,379
2023-02-17T04:44:30.818Z,379
2023-02-17T04:46:35.686Z,379
2023-02-17T04:48:40.600Z,379
2023-02-17T04:50:45.619Z,379
2023-02-17T04:52:50.767Z,379
2023-02-17T04:54:55.890Z,380
2023-02-17T04:57:00.924Z,379
2023-02-17T04:59:06.527Z,379
2023-02-17T05:01:11.949Z,381
2023-02-17T05:03:17.085Z,381
2023-02-17T05:05:22.230Z,378
2023-02-17T05:07:27.468Z,378
2023-02-17T05:09:32.436Z,379
2023-02-17T05:11:37.578Z,382
2023-02-17T05:13:43.030Z,380
2023-02-17T05:15:48.395Z,381
2023-02-17T05:17:53.225Z,379
2023-02-17T05:19:58.210Z,378
2023-02-17T05:22:03.273Z,379
2023-02-17T05:24:08.459Z,378
2023-02-17T05:26:13.629Z,377
2023-02-17T05:28:18.816Z,379
2023-02-17T05:30:24.030Z,379
2023-02-17T05:32:29.446Z,379
2023-02-17T05:34:34.414Z,379
2023-02-17T05:36:39.663Z,378
2023-02-17T05:38:44.750Z,378
2023-02-17T05:40:49.961Z,377
2023-02-17T05:42:54.872Z,379
2023-02-17T05:45:00.948Z,377
2023-02-17T05:47:06.065Z,377
2023-02-17T05:49:11.102Z,377
2023-02-17T05:51:16.076Z,377
2023-02-17T05:53:21.134Z,378
2023-02-17T05:55:26.218Z,378
2023-02-17T05:57:31.449Z,378
2023-02-17T05:59:36.510Z,378
2023-02-17T06:01:42.365Z,379
2023-02-17T06:03:47.492Z,379
2023-02-17T06:05:52.596Z,378
2023-02-17T06:07:57.906Z,378
2023-02-17T06:10:03.296Z,378
2023-02-17T06:12:08.492Z,378
2023-02-17T06:14:13.495Z,379
2023-02-17T06:16:18.671Z,379
2023-02-17T06:18:23.829Z,381
2023-02-17T06:20:29.134Z,382
2023-02-17T06:22:34.364Z,381
2023-02-17T06:24:39.506Z,382
2023-02-17T06:26:44.548Z,381
2023-02-17T06:28:49.798Z,379
2023-02-17T06:30:55.078Z,381
2023-02-17T06:33:00.341Z,380
2023-02-17T06:35:05.551Z,379
2023-02-17T06:37:10.760Z,378
2023-02-17T06:39:15.823Z,378
2023-02-17T06:41:21.121Z,378
2023-02-17T06:43:26.206Z,381
2023-02-17T06:45:31.626Z,381
2023-02-17T06:47:37.123Z,382
2023-02-17T06:49:43.413Z,379
2023-02-17T06:51:48.985Z,378
2023-02-17T06:53:54.194Z,377
2023-02-17T06:55:59.139Z,378
2023-02-17T06:58:04.285Z,378
2023-02-17T07:00:14.512Z,382
2023-02-17T07:02:19.989Z,378
2023-02-17T07:04:25.522Z,382
2023-02-17T07:06:31.667Z,379
2023-02-17T07:08:39.764Z,378
2023-02-17T07:10:45.639Z,381
2023-02-17T07:12:51.175Z,378
2023-02-17T07:14:56.403Z,378
2023-02-17T07:17:02.291Z,377
2023-02-17T07:19:08.817Z,377
2023-02-17T07:21:13.876Z,379
2023-02-17T07:23:18.979Z,378
2023-02-17T07:25:24.329Z,382
2023-02-17T07:27:29.409Z,379
2023-02-17T07:29:34.477Z,379
2023-02-17T07:31:52.511Z,378
2023-02-17T07:33:57.662Z,379
2023-02-17T07:36:02.809Z,378
2023-02-17T07:38:08.671Z,379
2023-02-17T07:40:16.653Z,379
2023-02-17T07:42:22.225Z,379
2023-02-17T07:44:27.779Z,378
2023-02-17T07:46:33.398Z,379
2023-02-17T07:48:38.865Z,377
2023-02-17T07:50:44.127Z,378
2023-02-17T07:52:50.346Z,378
2023-02-17T07:54:55.735Z,378
2023-02-17T07:57:01.685Z,380
2023-02-17T07:59:07.952Z,379
2023-02-17T08:01:15.315Z,381
2023-02-17T08:03:20.438Z,380
2023-02-17T08:05:28.183Z,379
2023-02-17T08:07:33.644Z,379
2023-02-17T08:09:39.251Z,379
2023-02-17T08:11:49.945Z,378
2023-02-17T08:13:55.676Z,378
2023-02-17T08:16:01.272Z,378
2023-02-17T08:18:07.643Z,380
2023-02-17T08:20:13.134Z,378
2023-02-17T08:22:20.033Z,378
2023-02-17T08:24:25.854Z,379
2023-02-17T08:26:31.157Z,377
2023-02-17T08:28:36.495Z,379
2023-02-17T08:30:42.541Z,379
2023-02-17T08:32:48.167Z,378
2023-02-17T08:34:53.764Z,379
2023-02-17T08:37:00.050Z,378
2023-02-17T08:39:06.678Z,379
2023-02-17T08:41:11.807Z,378
2023-02-17T08:43:19.707Z,379
2023-02-17T08:45:26.187Z,379
2023-02-17T08:47:32.198Z,378
2023-02-17T08:49:37.465Z,379
2023-02-17T08:51:42.824Z,379
2023-02-17T08:53:49.117Z,379
2023-02-17T08:55:54.415Z,378
2023-02-17T08:58:00.271Z,379
2023-02-17T09:00:07.942Z,379
2023-02-17T09:02:14.313Z,379
2023-02-17T09:04:20.285Z,379
2023-02-17T09:06:25.629Z,382
2023-02-17T09:08:30.899Z,382
2023-02-17T09:10:36.800Z,379
2023-02-17T09:12:42.227Z,379
2023-02-17T09:14:48.285Z,380
2023-02-17T09:16:53.630Z,381
2023-02-17T09:18:59.060Z,379
2023-02-17T09:21:04.174Z,379
2023-02-17T09:23:09.212Z,378
2023-02-17T09:27:34.744Z,378
2023-02-17T09:29:40.126Z,378
2023-02-17T09:31:45.657Z,379
2023-02-17T09:33:51.519Z,378
2023-02-17T09:35:56.984Z,379
2023-02-17T09:38:02.908Z,378
2023-02-17T09:40:08.553Z,379
2023-02-17T09:42:13.956Z,379
2023-02-17T09:44:20.159Z,379
2023-02-17T09:46:26.093Z,379
2023-02-17T09:48:32.736Z,377
2023-02-17T09:50:38.577Z,377
2023-02-17T09:52:43.974Z,379
2023-02-17T09:54:49.308Z,377
2023-02-17T09:56:54.859Z,379
2023-02-17T09:59:00.009Z,379
2023-02-17T10:01:05.762Z,378
2023-02-17T10:03:17.453Z,381
2023-02-17T10:05:23.672Z,379
2023-02-17T10:07:29.247Z,377
2023-02-17T10:09:35.538Z,378
2023-02-17T10:11:41.165Z,380
2023-02-17T10:13:46.654Z,379
2023-02-17T10:15:54.170Z,379
2023-02-17T10:18:00.551Z,379
2023-02-17T10:20:07.362Z,378
2023-02-17T10:22:13.014Z,381
2023-02-17T10:24:18.733Z,379
2023-02-17T10:26:23.990Z,378
2023-02-17T10:28:29.678Z,381
2023-02-17T10:30:35.635Z,379
2023-02-17T10:32:43.705Z,382
2023-02-17T10:34:49.477Z,378
2023-02-17T10:36:54.991Z,379
2023-02-17T10:39:00.364Z,380
2023-02-17T10:41:05.838Z,379
2023-02-17T10:43:12.027Z,379
2023-02-17T10:45:17.374Z,378
2023-02-17T10:47:23.882Z,379
2023-02-17T10:49:30.106Z,378
2023-02-17T10:51:36.376Z,379
2023-02-17T10:53:42.567Z,379
2023-02-17T10:55:49.285Z,379
2023-02-17T10:57:55.719Z,381
2023-02-17T11:00:01.565Z,379
2023-02-17T11:02:07.158Z,381
2023-02-17T11:04:15.872Z,382
2023-02-17T11:06:21.133Z,379
2023-02-17T11:08:26.699Z,379
2023-02-17T11:10:32.827Z,379
2023-02-17T11:12:38.412Z,379
2023-02-17T11:14:44.952Z,379
2023-02-17T11:16:51.105Z,384
2023-02-17T11:18:57.241Z,381
2023-02-17T11:21:03.526Z,378
2023-02-17T11:23:08.950Z,378
2023-02-17T11:25:14.380Z,379
2023-02-17T11:27:19.561Z,378
2023-02-17T11:29:25.057Z,378
2023-02-17T11:31:31.764Z,378
2023-02-17T11:33:40.278Z,378
2023-02-17T11:35:46.231Z,378
2023-02-17T11:37:51.726Z,379
2023-02-17T11:39:57.549Z,378
2023-02-17T11:42:03.051Z,377
2023-02-17T11:44:09.654Z,378
2023-02-17T11:46:15.118Z,378
2023-02-17T11:48:20.514Z,378
2023-02-17T11:50:43.315Z,378
2023-02-17T11:52:57.493Z,378
2023-02-17T11:55:02.878Z,378
2023-02-17T11:57:08.987Z,379
2023-02-17T11:59:14.530Z,379
2023-02-17T12:01:23.649Z,379
2023-02-17T12:03:30.493Z,378
2023-02-17T12:05:35.985Z,378
2023-02-17T12:07:41.180Z,379
2023-02-17T12:09:46.996Z,379
2023-02-17T12:11:53.486Z,379
2023-02-17T12:14:00.317Z,378
2023-02-17T12:16:07.698Z,378
2023-02-17T12:18:14.749Z,378
2023-02-17T12:20:20.398Z,379
2023-02-17T12:22:26.691Z,379
2023-02-17T12:24:33.178Z,379
2023-02-17T12:26:39.199Z,378
2023-02-17T12:28:44.968Z,378
2023-02-17T12:30:51.036Z,379
2023-02-17T12:32:56.791Z,380
2023-02-17T12:35:02.960Z,379
2023-02-17T12:37:08.451Z,379
2023-02-17T12:39:13.918Z,378
2023-02-17T12:41:19.188Z,379
2023-02-17T12:43:24.240Z,378
2023-02-17T12:45:29.530Z,379
2023-02-17T12:47:37.946Z,379
2023-02-17T12:49:43.728Z,381
2023-02-17T12:51:49.923Z,379
2023-02-17T12:53:55.597Z,379
2023-02-17T12:56:01.125Z,378
2023-02-17T12:58:06.957Z,379
2023-02-17T13:00:12.518Z,379
2023-02-17T13:02:20.914Z,379
2023-02-17T13:04:26.714Z,378
2023-02-17T13:06:32.287Z,378
2023-02-17T13:08:37.829Z,378
2023-02-17T13:10:42.992Z,379
2023-02-17T13:12:48.579Z,378
2023-02-17T13:14:53.741Z,378
2023-02-17T13:16:59.962Z,378
2023-02-17T13:19:05.526Z,378
2023-02-17T13:21:13.842Z,382
2023-02-17T13:23:19.138Z,378
2023-02-17T13:25:24.273Z,378
2023-02-17T13:27:30.108Z,378
2023-02-17T13:29:35.712Z,379
2023-02-17T13:31:44.570Z,378
2023-02-17T13:33:49.981Z,379
2023-02-17T13:35:55.073Z,378
2023-02-17T13:38:00.336Z,378
2023-02-17T13:40:06.580Z,379
2023-02-17T13:42:11.823Z,377
2023-02-17T13:44:17.104Z,378
2023-02-17T13:46:23.270Z,379
2023-02-17T13:48:28.895Z,376
2023-02-17T13:50:34.048Z,379
2023-02-17T13:52:39.984Z,378
2023-02-17T13:54:45.492Z,379
2023-02-17T13:56:50.816Z,378
2023-02-17T13:58:56.317Z,377
2023-02-17T14:01:01.806Z,379
2023-02-17T14:03:07.083Z,377
2023-02-17T14:05:13.926Z,378
2023-02-17T14:07:19.668Z,378
2023-02-17T14:09:25.362Z,379
2023-02-17T14:11:34.280Z,378
2023-02-17T14:13:39.760Z,378
2023-02-17T14:15:45.755Z,378
2023-02-17T14:17:52.697Z,380
2023-02-17T14:19:59.520Z,378
2023-02-17T14:22:06.462Z,378
2023-02-17T14:24:14.189Z,379
2023-02-17T14:26:19.804Z,378
2023-02-17T14:28:25.852Z,378
2023-02-17T14:30:32.850Z,377
2023-02-17T14:32:39.652Z,379
2023-02-17T14:34:45.775Z,378
2023-02-17T14:36:52.664Z,377
2023-02-17T14:38:59.072Z,378
2023-02-17T14:41:06.119Z,378
2023-02-17T14:43:13.998Z,379
2023-02-17T14:45:19.569Z,378
2023-02-17T14:47:25.235Z,382
2023-02-17T14:49:33.296Z,378
2023-02-17T14:51:39.288Z,378
2023-02-17T14:53:44.771Z,377
2023-02-17T14:55:52.191Z,377
2023-02-17T14:57:59.343Z,377
2023-02-17T15:00:05.478Z,378
2023-02-17T15:02:11.638Z,378
2023-02-17T15:04:20.540Z,378
2023-02-17T15:06:32.454Z,377
2023-02-17T15:08:40.413Z,378
2023-02-17T15:10:47.891Z,379
2023-02-17T15:12:54.653Z,378
2023-02-17T15:15:01.265Z,378
2023-02-17T15:17:07.895Z,379
2023-02-17T15:19:15.074Z,379
2023-02-17T15:21:23.085Z,379
2023-02-17T15:23:30.432Z,378
2023-02-17T15:25:40.287Z,381
2023-02-17T15:27:51.171Z,378
2023-02-17T15:30:03.603Z,378
2023-02-17T15:32:17.159Z,378
2023-02-17T15:34:24.569Z,379
2023-02-17T15:36:32.908Z,379
2023-02-17T15:38:39.625Z,379
2023-02-17T15:40:48.505Z,380
2023-02-17T15:46:06.927Z,379
2023-02-17T15:48:34.493Z,378
2023-02-17T15:50:41.353Z,378
2023-02-17T15:52:49.158Z,379
2023-02-17T15:54:56.032Z,379
2023-02-17T15:57:04.075Z,379
2023-02-17T15:59:12.882Z,379
2023-02-17T16:01:22.062Z,379
2023-02-17T16:03:30.403Z,378
2023-02-17T16:05:38.601Z,379
2023-02-17T16:07:53.717Z,379
2023-02-17T16:10:03.737Z,379
2023-02-17T16:12:11.086Z,378
2023-02-17T16:14:21.316Z,379
2023-02-17T16:16:30.855Z,379
2023-02-17T16:18:39.111Z,379
2023-02-17T16:20:45.510Z,379
2023-02-17T16:22:57.222Z,378
2023-02-17T16:25:06.247Z,378
2023-02-17T16:27:14.889Z,378
2023-02-17T16:29:29.002Z,378
2023-02-17T16:34:15.961Z,378
2023-02-17T16:37:09.140Z,378
2023-02-17T16:39:47.045Z,378
2023-02-17T16:42:04.027Z,379
2023-02-17T16:44:12.573Z,378
2023-02-17T16:46:24.449Z,379
2023-02-17T16:48:34.521Z,378
2023-02-17T16:50:53.917Z,378
2023-02-17T16:53:04.595Z,378
2023-02-17T16:55:16.632Z,378
2023-02-17T16:57:24.447Z,381
2023-02-17T16:59:39.321Z,381
2023-02-17T17:01:53.557Z,379
2023-02-17T17:04:05.291Z,379
2023-02-17T17:06:18.483Z,378
2023-02-17T17:08:26.522Z,378
2023-02-17T17:10:39.045Z,378
2023-02-17T17:12:50.380Z,379
2023-02-17T17:14:59.947Z,381
2023-02-17T17:17:08.843Z,378
2023-02-17T17:19:18.411Z,378
2023-02-17T17:21:27.462Z,378
2023-02-17T17:23:37.634Z,379
2023-02-17T17:25:48.822Z,378
2023-02-17T17:27:57.688Z,378
2023-02-17T17:30:06.621Z,379
2023-02-17T17:32:17.688Z,378
2023-02-17T17:34:27.314Z,378
2023-02-17T17:36:36.671Z,377
2023-02-17T17:38:53.597Z,378
2023-02-17T17:41:04.963Z,378
2023-02-17T17:43:14.544Z,381
2023-02-17T17:45:30.924Z,378
2023-02-17T17:47:41.889Z,376
2023-02-17T17:49:54.654Z,376
2023-02-17T17:52:05.901Z,377
2023-02-17T17:54:15.694Z,377
2023-02-17T17:56:25.421Z,377
2023-02-17T17:58:48.544Z,379
2023-02-17T18:01:03.179Z,378
2023-02-17T18:03:14.366Z,377
2023-02-17T18:05:24.510Z,378
2023-02-17T18:07:38.517Z,379
2023-02-17T18:09:51.429Z,381
2023-02-17T18:12:04.440Z,378
2023-02-17T18:14:18.178Z,379
2023-02-17T18:16:37.030Z,379
2023-02-17T18:18:49.569Z,379
2023-02-17T18:21:12.703Z,379
2023-02-17T18:23:22.590Z,378
2023-02-17T18:25:54.809Z,379
2023-02-17T18:28:20.673Z,378
2023-02-17T18:30:34.749Z,379
2023-02-17T18:32:48.520Z,377
2023-02-17T18:35:01.509Z,378
2023-02-17T18:37:12.414Z,377
2023-02-17T18:39:21.741Z,377
2023-02-17T18:41:36.176Z,377
2023-02-17T18:43:46.891Z,379
2023-02-17T18:46:00.217Z,378
2023-02-17T18:48:13.058Z,378
2023-02-17T18:50:25.508Z,378
2023-02-17T18:52:41.969Z,377
2023-02-17T18:54:50.535Z,377
2023-02-17T18:57:05.173Z,378
2023-02-17T18:59:17.945Z,378
2023-02-17T19:01:31.076Z,378
2023-02-17T19:03:42.811Z,378
2023-02-17T19:05:55.063Z,379
2023-02-17T19:08:04.520Z,378
2023-02-17T19:10:16.411Z,378
2023-02-17T19:12:30.219Z,376
2023-02-17T19:14:42.018Z,377
2023-02-17T19:16:54.495Z,379
2023-02-17T19:19:07.641Z,382
2023-02-17T19:21:21.637Z,378
2023-02-17T19:23:42.827Z,379
2023-02-17T19:25:54.762Z,379
2023-02-17T19:28:05.469Z,377
2023-02-17T19:30:20.904Z,376
2023-02-17T19:32:29.812Z,377
2023-02-17T19:34:44.116Z,376
2023-02-17T19:37:00.931Z,377
2023-02-17T19:39:12.659Z,377
2023-02-17T19:41:21.679Z,376
2023-02-17T19:43:35.803Z,378
2023-02-17T19:45:45.547Z,376
2023-02-17T19:47:57.345Z,376
2023-02-17T19:50:22.496Z,377
2023-02-17T19:52:35.480Z,375
2023-02-17T19:54:49.450Z,376
2023-02-17T19:57:00.719Z,376
2023-02-17T19:59:19.643Z,376
2023-02-17T20:01:36.764Z,376
2023-02-17T20:03:55.515Z,376
2023-02-17T20:06:08.987Z,377
2023-02-17T20:08:19.160Z,378
2023-02-17T20:10:33.303Z,376
2023-02-17T20:12:42.676Z,376
2023-02-17T20:14:56.995Z,376
2023-02-17T20:17:08.516Z,376
2023-02-17T20:19:21.635Z,376
2023-02-17T20:21:33.355Z,376
2023-02-17T20:23:47.943Z,377
2023-02-17T20:25:59.962Z,376
2023-02-17T20:28:12.414Z,376
2023-02-17T20:30:28.394Z,375
2023-02-17T20:32:52.635Z,376
2023-02-17T20:35:08.751Z,375
2023-02-17T20:37:19.059Z,374
2023-02-17T20:39:30.636Z,375
2023-02-17T20:41:39.820Z,375
2023-02-17T20:43:53.144Z,374
2023-02-17T20:46:08.160Z,376
2023-02-17T20:48:22.802Z,375
2023-02-17T20:50:34.068Z,375
2023-02-17T20:52:48.737Z,376
2023-02-17T20:54:58.004Z,374
2023-02-17T20:57:14.004Z,373
2023-02-17T20:59:35.568Z,374
2023-02-17T21:01:44.353Z,373
2023-02-17T21:03:57.156Z,373
2023-02-17T21:06:05.744Z,374
2023-02-17T21:08:18.988Z,374
2023-02-17T21:10:29.851Z,373
2023-02-17T21:12:44.239Z,374
2023-02-17T21:14:57.772Z,373
2023-02-17T21:17:06.846Z,373
2023-02-17T21:19:15.263Z,373
2023-02-17T21:21:26.821Z,374
2023-02-17T21:23:37.866Z,374
2023-02-17T21:25:47.682Z,373
2023-02-17T21:27:57.590Z,373
2023-02-17T21:30:07.530Z,374
2023-02-17T21:32:16.883Z,369
2023-02-17T21:34:24.728Z,373
2023-02-17T21:36:33.963Z,372
2023-02-17T21:38:42.835Z,369
2023-02-17T21:40:49.623Z,369
2023-02-17T21:42:57.777Z,369
2023-02-17T21:45:05.675Z,369
2023-02-17T21:47:15.855Z,373
2023-02-17T21:49:28.344Z,374
2023-02-17T21:51:36.992Z,373
2023-02-17T21:53:45.074Z,373
2023-02-17T21:55:53.408Z,373
2023-02-17T21:58:01.070Z,373
2023-02-17T22:00:11.552Z,369
2023-02-17T22:02:21.131Z,373
2023-02-17T22:04:28.656Z,370
2023-02-17T22:06:37.505Z,370
2023-02-17T22:08:44.688Z,373
2023-02-17T22:10:51.413Z,372
2023-02-17T22:12:58.021Z,369
2023-02-17T22:15:04.784Z,372
2023-02-17T22:17:12.475Z,369
2023-02-17T22:19:19.531Z,369
2023-02-17T22:21:26.277Z,369
2023-02-17T22:23:32.713Z,373
2023-02-17T22:25:39.078Z,369
2023-02-17T22:27:46.588Z,368
2023-02-17T22:29:53.227Z,367
2023-02-17T22:32:00.479Z,368
2023-02-17T22:34:08.149Z,369
2023-02-17T22:36:15.015Z,368
2023-02-17T22:38:21.081Z,367
2023-02-17T22:40:27.506Z,368
2023-02-17T22:42:34.728Z,368
2023-02-17T22:44:41.797Z,368
2023-02-17T22:46:48.695Z,368
2023-02-17T22:48:55.805Z,366
2023-02-17T22:51:03.080Z,367
2023-02-17T22:53:09.294Z,367
2023-02-17T22:55:15.892Z,368
2023-02-17T22:57:21.884Z,367
2023-02-17T22:59:29.158Z,368
2023-02-17T23:01:35.143Z,369
2023-02-17T23:03:41.778Z,368
2023-02-17T23:05:49.566Z,368
2023-02-17T23:07:55.619Z,368
2023-02-17T23:10:01.100Z,367
2023-02-17T23:12:06.470Z,367
2023-02-17T23:14:12.127Z,368
2023-02-17T23:16:17.743Z,367
2023-02-17T23:18:23.778Z,367
2023-02-17T23:20:29.085Z,367
2023-02-17T23:22:34.433Z,367
2023-02-17T23:24:39.860Z,367
2023-02-17T23:26:45.049Z,366
2023-02-17T23:28:50.767Z,366
2023-02-17T23:30:57.397Z,367
2023-02-17T23:33:06.380Z,367
2023-02-17T23:35:12.607Z,367
2023-02-17T23:37:18.626Z,368
2023-02-17T23:39:24.756Z,367
2023-02-17T23:41:30.436Z,367
2023-02-17T23:43:36.381Z,367
2023-02-17T23:45:42.016Z,365
2023-02-17T23:47:48.198Z,366
2023-02-17T23:49:54.794Z,367
2023-02-17T23:52:00.760Z,366
2023-02-17T23:54:06.251Z,367
2023-02-17T23:56:12.156Z,367
2023-02-17T23:58:17.367Z,366
